Terminal Aerodrome Forecast
Issued by NWS

Home | Current Version | Previous Version | Text Only | Print | Product List | Glossary Off
Versions: 1 2 3 4 5 6 7 8 9 10 11 12 13 14 15 16 17 18 19 20 21 22 23 24 25 26 27 28 29 30

912
FTUS43 KLOT 251907 AAA
TAFMDW
TAF AMD
KMDW 251907Z 2519/2618 17012G17KT P6SM VCSH SCT050
     FM252000 20013G18KT P6SM VCSH BKN050
      TEMPO 2520/2523 3SM -TSRA BKN025CB
     FM260000 22010KT P6SM VCSH SCT015 BKN040
      TEMPO 2602/2605 4SM -SHRA BKN015
     FM260500 28012G18KT P6SM BKN080 BKN150 PROB30 2605/2607 -RA
      BKN050
     FM261400 27017G26KT P6SM SCT050=

USA.gov is the U.S. government's official web portal to all federal, state and local government web resources and services.